Aeroporto :
LOGIN :

Iscrizione | Disclaimer

   EN    FR    IT 

 










Sommario :    VFR   VFR Marginale   IFR   IFR Intensivo   IFR Molto Intensivo
Visibilità : 
Base nubi : 
>= 8 km
>= 3000ft
5 / 8 km
1000 / 3000 ft
1500m / 5 km
500 / 1000 ft
800 / 1500m
200 / 500 ft
< 800m
< 200 ft
Simboli :   Temporali  Nebbia  Neve Forte  Precipitazioni Forti  Vento > 20 kt
SIGMETs :   Varie  Temporali  Ghiacco  Turbolenza  Onda orograficha  Ceneri Vulcaniche






- Altitudine del aeroporto : 38 ft
- Codice IATA : BOH


EGHH - Bournemouth

ULTIMO METAR :
  • 160720Z 19004KT 9999 SCT032 08/07 Q0999

METARs OBSOLETI :
  • 160650Z 21004KT 9999 FEW025 SCT048 08/07 Q0999
  • 160620Z 21006KT 9999 FEW020 SCT045 08/07 Q0999
  • 160550Z 20007KT 9999 FEW014 SCT045 09/07 Q0999 RERA

TAF TAF EGHH
Valido dal 16 a 06 ore il 16 a 15 ore UTC


160628Z 1606/1615 24006KT 9999 SCT035
ATIS : +44 1202 364 151
Met : +44 1202 364 158 (TAF)



MetMap, La meteo Aeronautica in un colpo d'occhio ! - Copyright ORBIFLY Dicembre 2007 - Disclaimer

ORBIFLY MET'MAP TEAM :

Programmazione e sviluppo : Alexandra Zaïnal
Concezione : Baudouin d'Aumeries
Aiuto per la programmazione : Marc-Olivier Méhu
Supporto tecnico e logistico : Manuel Goepfert
Aiuto per la traduzione : Arnaldo La Scala

Contatto : metmap@orbifly.com




FONTI E CREDITI :

   NOAA